sensor_id;sensor_type;location;lat;lon;timestamp;pressure;altitude;pressure_sealevel;temperature;humidity
30897;BME280;17597;52.246;21.054;2022-08-01T00:02:30;100205.78;;;15.79;94.08
30897;BME280;17597;52.246;21.054;2022-08-01T00:04:56;100206.56;;;15.80;93.90
30897;BME280;17597;52.246;21.054;2022-08-01T00:07:22;100207.19;;;15.77;94.20
30897;BME280;17597;52.246;21.054;2022-08-01T00:09:48;100200.91;;;15.68;94.55
30897;BME280;17597;52.246;21.054;2022-08-01T00:12:13;100194.81;;;15.76;95.16
30897;BME280;17597;52.246;21.054;2022-08-01T00:14:39;100191.22;;;15.80;93.95
30897;BME280;17597;52.246;21.054;2022-08-01T00:17:04;100201.78;;;15.77;94.21
30897;BME280;17597;52.246;21.054;2022-08-01T00:19:29;100194.81;;;15.76;94.06
30897;BME280;17597;52.246;21.054;2022-08-01T00:21:55;100195.00;;;15.79;93.76
30897;BME280;17597;52.246;21.054;2022-08-01T00:24:20;100201.56;;;15.73;94.29
30897;BME280;17597;52.246;21.054;2022-08-01T00:26:45;100187.31;;;15.73;94.01
30897;BME280;17597;52.246;21.054;2022-08-01T00:29:11;100176.88;;;15.71;93.00
30897;BME280;17597;52.246;21.054;2022-08-01T00:31:37;100181.09;;;15.64;94.21
30897;BME280;17597;52.246;21.054;2022-08-01T00:34:02;100181.44;;;15.57;95.52
30897;BME280;17597;52.246;21.054;2022-08-01T00:36:27;100178.66;;;15.48;96.02
30897;BME280;17597;52.246;21.054;2022-08-01T00:38:53;100169.00;;;15.61;94.28
30897;BME280;17597;52.246;21.054;2022-08-01T00:41:18;100174.78;;;15.68;94.02
30897;BME280;17597;52.246;21.054;2022-08-01T00:43:43;100180.16;;;15.68;94.05
30897;BME280;17597;52.246;21.054;2022-08-01T00:46:09;100182.38;;;15.66;94.12
30897;BME280;17597;52.246;21.054;2022-08-01T00:48:34;100178.47;;;15.58;94.92
30897;BME280;17597;52.246;21.054;2022-08-01T00:50:59;100174.78;;;15.54;95.72
30897;BME280;17597;52.246;21.054;2022-08-01T00:53:25;100187.63;;;15.57;94.90
30897;BME280;17597;52.246;21.054;2022-08-01T00:55:51;100184.75;;;15.68;94.28
30897;BME280;17597;52.246;21.054;2022-08-01T00:58:16;100185.56;;;15.68;93.93
30897;BME280;17597;52.246;21.054;2022-08-01T01:00:42;100188.13;;;15.59;95.06
30897;BME280;17597;52.246;21.054;2022-08-01T01:03:07;100186.13;;;15.51;95.05
30897;BME280;17597;52.246;21.054;2022-08-01T01:08:24;100175.97;;;15.62;93.98
30897;BME280;17597;52.246;21.054;2022-08-01T01:10:55;100179.38;;;15.54;94.61
30897;BME280;17597;52.246;21.054;2022-08-01T01:16:02;100188.00;;;15.51;95.07
30897;BME280;17597;52.246;21.054;2022-08-01T01:18:38;100188.75;;;15.43;95.64
30897;BME280;17597;52.246;21.054;2022-08-01T01:26:57;100181.03;;;15.50;95.05
30897;BME280;17597;52.246;21.054;2022-08-01T01:29:39;100184.84;;;15.49;94.97
30897;BME280;17597;52.246;21.054;2022-08-01T01:32:07;100180.06;;;15.46;95.03
30897;BME280;17597;52.246;21.054;2022-08-01T01:34:37;100175.69;;;15.36;95.85
30897;BME280;17597;52.246;21.054;2022-08-01T01:37:06;100173.28;;;15.34;96.20
30897;BME280;17597;52.246;21.054;2022-08-01T01:39:36;100181.97;;;15.31;95.73
30897;BME280;17597;52.246;21.054;2022-08-01T01:42:06;100178.25;;;15.27;95.93
30897;BME280;17597;52.246;21.054;2022-08-01T01:44:32;100180.75;;;15.24;95.93
30897;BME280;17597;52.246;21.054;2022-08-01T01:46:59;100170.19;;;15.14;96.04
30897;BME280;17597;52.246;21.054;2022-08-01T01:49:26;100181.25;;;15.26;95.35
30897;BME280;17597;52.246;21.054;2022-08-01T01:51:54;100187.72;;;15.25;95.41
30897;BME280;17597;52.246;21.054;2022-08-01T01:54:24;100177.47;;;15.27;94.95
30897;BME280;17597;52.246;21.054;2022-08-01T01:56:55;100179.66;;;15.25;94.81
30897;BME280;17597;52.246;21.054;2022-08-01T01:59:27;100180.25;;;15.22;95.05
30897;BME280;17597;52.246;21.054;2022-08-01T02:01:55;100175.75;;;15.17;95.39
30897;BME280;17597;52.246;21.054;2022-08-01T02:04:22;100171.47;;;15.02;95.95
30897;BME280;17597;52.246;21.054;2022-08-01T02:06:50;100172.47;;;15.07;96.17
30897;BME280;17597;52.246;21.054;2022-08-01T02:09:20;100171.47;;;15.02;96.43
30897;BME280;17597;52.246;21.054;2022-08-01T02:11:47;100168.19;;;15.05;96.13
30897;BME280;17597;52.246;21.054;2022-08-01T02:14:15;100167.78;;;14.98;96.73
30897;BME280;17597;52.246;21.054;2022-08-01T02:16:44;100171.19;;;15.04;95.05
30897;BME280;17597;52.246;21.054;2022-08-01T02:19:11;100160.50;;;14.99;95.13
30897;BME280;17597;52.246;21.054;2022-08-01T02:21:44;100168.00;;;15.02;94.67
30897;BME280;17597;52.246;21.054;2022-08-01T02:27:01;100167.28;;;14.96;94.42
30897;BME280;17597;52.246;21.054;2022-08-01T02:29:35;100169.84;;;14.88;95.16
30897;BME280;17597;52.246;21.054;2022-08-01T02:32:04;100163.78;;;14.82;96.11
30897;BME280;17597;52.246;21.054;2022-08-01T02:34:29;100176.91;;;14.84;95.69
30897;BME280;17597;52.246;21.054;2022-08-01T02:36:58;100165.88;;;14.85;95.17
30897;BME280;17597;52.246;21.054;2022-08-01T02:39:26;100176.72;;;14.80;94.71
30897;BME280;17597;52.246;21.054;2022-08-01T02:41:58;100181.38;;;14.88;93.85
30897;BME280;17597;52.246;21.054;2022-08-01T02:44:30;100179.78;;;14.87;94.09
30897;BME280;17597;52.246;21.054;2022-08-01T02:46:59;100182.28;;;14.84;94.34
30897;BME280;17597;52.246;21.054;2022-08-01T02:49:31;100175.41;;;14.77;94.56
30897;BME280;17597;52.246;21.054;2022-08-01T02:51:59;100185.31;;;14.63;95.51
30897;BME280;17597;52.246;21.054;2022-08-01T02:54:26;100179.94;;;14.63;94.96
30897;BME280;17597;52.246;21.054;2022-08-01T02:56:55;100180.88;;;14.72;94.53
30897;BME280;17597;52.246;21.054;2022-08-01T02:59:22;100180.44;;;14.65;94.74
30897;BME280;17597;52.246;21.054;2022-08-01T03:01:55;100189.59;;;14.64;94.92
30897;BME280;17597;52.246;21.054;2022-08-01T03:04:23;100187.88;;;14.55;95.81
30897;BME280;17597;52.246;21.054;2022-08-01T03:06:49;100187.16;;;14.49;96.11
30897;BME280;17597;52.246;21.054;2022-08-01T03:09:16;100188.03;;;14.44;96.91
30897;BME280;17597;52.246;21.054;2022-08-01T03:11:43;100193.09;;;14.46;96.67
30897;BME280;17597;52.246;21.054;2022-08-01T03:14:11;100195.63;;;14.56;96.68
30897;BME280;17597;52.246;21.054;2022-08-01T03:16:38;100196.34;;;14.43;96.40
30897;BME280;17597;52.246;21.054;2022-08-01T03:19:07;100183.50;;;14.40;97.36
30897;BME280;17597;52.246;21.054;2022-08-01T03:21:34;100193.03;;;14.32;97.79
30897;BME280;17597;52.246;21.054;2022-08-01T03:24:01;100191.44;;;14.31;98.12
30897;BME280;17597;52.246;21.054;2022-08-01T03:26:29;100183.97;;;14.28;98.06
30897;BME280;17597;52.246;21.054;2022-08-01T03:28:58;100188.94;;;14.35;97.34
30897;BME280;17597;52.246;21.054;2022-08-01T03:31:25;100187.59;;;14.37;96.51
30897;BME280;17597;52.246;21.054;2022-08-01T03:33:51;100183.88;;;14.33;96.77
30897;BME280;17597;52.246;21.054;2022-08-01T03:36:25;100192.56;;;14.44;96.12
30897;BME280;17597;52.246;21.054;2022-08-01T03:38:56;100186.88;;;14.51;95.13
30897;BME280;17597;52.246;21.054;2022-08-01T03:41:24;100191.25;;;14.46;95.60
30897;BME280;17597;52.246;21.054;2022-08-01T03:43:59;100198.41;;;14.51;95.26
30897;BME280;17597;52.246;21.054;2022-08-01T03:46:32;100203.78;;;14.51;95.75
30897;BME280;17597;52.246;21.054;2022-08-01T03:49:00;100198.75;;;14.44;95.99
30897;BME280;17597;52.246;21.054;2022-08-01T03:51:30;100204.06;;;14.50;95.96
30897;BME280;17597;52.246;21.054;2022-08-01T03:53:59;100201.00;;;14.56;95.41
30897;BME280;17597;52.246;21.054;2022-08-01T03:56:27;100201.00;;;14.56;95.33
30897;BME280;17597;52.246;21.054;2022-08-01T03:58:59;100206.38;;;14.56;95.53
30897;BME280;17597;52.246;21.054;2022-08-01T04:01:26;100211.75;;;14.56;95.13
30897;BME280;17597;52.246;21.054;2022-08-01T04:03:53;100213.72;;;14.51;95.66
30897;BME280;17597;52.246;21.054;2022-08-01T04:06:19;100212.34;;;14.53;95.01
30897;BME280;17597;52.246;21.054;2022-08-01T04:08:45;100215.03;;;14.53;95.07
30897;BME280;17597;52.246;21.054;2022-08-01T04:11:21;100225.25;;;14.51;95.82
30897;BME280;17597;52.246;21.054;2022-08-01T04:13:47;100227.16;;;14.51;95.59
30897;BME280;17597;52.246;21.054;2022-08-01T04:16:15;100236.06;;;14.46;96.76
30897;BME280;17597;52.246;21.054;2022-08-01T04:18:40;100225.31;;;14.46;96.54
30897;BME280;17597;52.246;21.054;2022-08-01T04:21:06;100223.28;;;14.57;95.92
30897;BME280;17597;52.246;21.054;2022-08-01T04:23:33;100231.13;;;14.72;94.16
30897;BME280;17597;52.246;21.054;2022-08-01T04:26:01;100232.41;;;14.74;94.02
30897;BME280;17597;52.246;21.054;2022-08-01T04:28:31;100235.03;;;14.80;94.58
30897;BME280;17597;52.246;21.054;2022-08-01T04:31:00;100237.13;;;14.83;93.59
30897;BME280;17597;52.246;21.054;2022-08-01T04:33:28;100238.50;;;14.80;93.79
30897;BME280;17597;52.246;21.054;2022-08-01T04:35:56;100239.38;;;14.75;94.07
30897;BME280;17597;52.246;21.054;2022-08-01T04:38:25;100240.25;;;14.90;92.85
30897;BME280;17597;52.246;21.054;2022-08-01T04:40:54;100241.22;;;14.94;92.60
30897;BME280;17597;52.246;21.054;2022-08-01T04:43:19;100241.34;;;14.89;93.26
30897;BME280;17597;52.246;21.054;2022-08-01T04:45:46;100236.75;;;14.89;92.82
30897;BME280;17597;52.246;21.054;2022-08-01T04:48:13;100244.34;;;15.01;92.91
30897;BME280;17597;52.246;21.054;2022-08-01T04:50:41;100237.94;;;14.97;93.05
30897;BME280;17597;52.246;21.054;2022-08-01T04:53:15;100239.28;;;14.99;93.23
30897;BME280;17597;52.246;21.054;2022-08-01T04:55:43;100248.75;;;15.11;92.41
30897;BME280;17597;52.246;21.054;2022-08-01T04:58:12;100236.50;;;15.18;92.29
30897;BME280;17597;52.246;21.054;2022-08-01T05:00:38;100243.38;;;15.24;92.26
30897;BME280;17597;52.246;21.054;2022-08-01T05:03:04;100241.38;;;15.30;91.85
30897;BME280;17597;52.246;21.054;2022-08-01T05:05:29;100247.50;;;15.36;91.76
30897;BME280;17597;52.246;21.054;2022-08-01T05:07:55;100249.56;;;15.52;89.64
30897;BME280;17597;52.246;21.054;2022-08-01T05:10:21;100242.03;;;15.54;89.91
30897;BME280;17597;52.246;21.054;2022-08-01T05:12:46;100241.44;;;15.57;88.81
30897;BME280;17597;52.246;21.054;2022-08-01T05:15:11;100258.06;;;15.59;88.47
30897;BME280;17597;52.246;21.054;2022-08-01T05:17:37;100251.69;;;15.55;89.53
30897;BME280;17597;52.246;21.054;2022-08-01T05:20:02;100257.38;;;15.54;90.02
30897;BME280;17597;52.246;21.054;2022-08-01T05:22:28;100258.47;;;15.53;89.04
30897;BME280;17597;52.246;21.054;2022-08-01T05:24:53;100265.81;;;15.47;88.96
30897;BME280;17597;52.246;21.054;2022-08-01T05:27:18;100260.34;;;15.39;89.72
30897;BME280;17597;52.246;21.054;2022-08-01T05:29:44;100263.63;;;15.36;90.51
30897;BME280;17597;52.246;21.054;2022-08-01T05:32:10;100263.13;;;15.33;89.55
30897;BME280;17597;52.246;21.054;2022-08-01T05:34:35;100279.16;;;15.39;88.45
30897;BME280;17597;52.246;21.054;2022-08-01T05:37:01;100264.72;;;15.34;88.58
30897;BME280;17597;52.246;21.054;2022-08-01T05:39:26;100273.56;;;15.21;89.02
30897;BME280;17597;52.246;21.054;2022-08-01T05:41:52;100281.03;;;15.24;89.63
30897;BME280;17597;52.246;21.054;2022-08-01T05:44:17;100272.78;;;15.21;90.61
30897;BME280;17597;52.246;21.054;2022-08-01T05:46:42;100276.88;;;15.32;89.65
30897;BME280;17597;52.246;21.054;2022-08-01T05:49:08;100270.41;;;15.33;89.83
30897;BME280;17597;52.246;21.054;2022-08-01T05:51:33;100273.09;;;15.33;89.79
30897;BME280;17597;52.246;21.054;2022-08-01T05:54:00;100274.97;;;15.32;90.82
30897;BME280;17597;52.246;21.054;2022-08-01T05:56:25;100282.28;;;15.59;87.61
30897;BME280;17597;52.246;21.054;2022-08-01T05:58:51;100280.69;;;15.58;87.83
30897;BME280;17597;52.246;21.054;2022-08-01T06:01:17;100284.59;;;15.66;86.63
30897;BME280;17597;52.246;21.054;2022-08-01T06:03:43;100291.59;;;15.67;86.11
30897;BME280;17597;52.246;21.054;2022-08-01T06:06:09;100284.50;;;15.71;86.61
30897;BME280;17597;52.246;21.054;2022-08-01T06:08:34;100286.09;;;15.72;87.55
30897;BME280;17597;52.246;21.054;2022-08-01T06:11:00;100286.41;;;15.84;86.67
30897;BME280;17597;52.246;21.054;2022-08-01T06:13:26;100282.69;;;15.94;85.71
30897;BME280;17597;52.246;21.054;2022-08-01T06:15:51;100280.91;;;15.89;86.42
30897;BME280;17597;52.246;21.054;2022-08-01T06:18:17;100283.69;;;16.12;84.47
30897;BME280;17597;52.246;21.054;2022-08-01T06:20:43;100284.06;;;16.05;85.34
30897;BME280;17597;52.246;21.054;2022-08-01T06:23:09;100283.19;;;16.10;85.83
30897;BME280;17597;52.246;21.054;2022-08-01T06:25:34;100281.16;;;16.29;84.38
30897;BME280;17597;52.246;21.054;2022-08-01T06:28:01;100285.44;;;16.30;84.76
30897;BME280;17597;52.246;21.054;2022-08-01T06:30:26;100285.81;;;16.51;83.43
30897;BME280;17597;52.246;21.054;2022-08-01T06:32:52;100280.28;;;16.56;82.85
30897;BME280;17597;52.246;21.054;2022-08-01T06:35:18;100289.38;;;16.60;82.68
30897;BME280;17597;52.246;21.054;2022-08-01T06:37:44;100294.13;;;16.63;83.29
30897;BME280;17597;52.246;21.054;2022-08-01T06:40:12;100291.56;;;16.72;82.84
30897;BME280;17597;52.246;21.054;2022-08-01T06:42:39;100300.06;;;16.88;81.21
30897;BME280;17597;52.246;21.054;2022-08-01T06:45:05;100290.56;;;16.90;81.63
30897;BME280;17597;52.246;21.054;2022-08-01T06:47:31;100294.78;;;17.05;80.74
30897;BME280;17597;52.246;21.054;2022-08-01T06:49:56;100293.91;;;17.18;79.30
30897;BME280;17597;52.246;21.054;2022-08-01T06:52:22;100294.28;;;17.25;79.03
30897;BME280;17597;52.246;21.054;2022-08-01T06:54:47;100292.72;;;17.33;78.17
30897;BME280;17597;52.246;21.054;2022-08-01T06:57:13;100289.91;;;17.38;78.71
30897;BME280;17597;52.246;21.054;2022-08-01T06:59:38;100302.97;;;17.45;78.62
30897;BME280;17597;52.246;21.054;2022-08-01T07:02:04;100291.88;;;17.46;78.12
30897;BME280;17597;52.246;21.054;2022-08-01T07:04:29;100288.91;;;17.56;76.68
30897;BME280;17597;52.246;21.054;2022-08-01T07:06:55;100288.97;;;17.74;75.58
30897;BME280;17597;52.246;21.054;2022-08-01T07:09:25;100286.63;;;17.81;75.59
30897;BME280;17597;52.246;21.054;2022-08-01T07:11:50;100285.22;;;17.92;74.56
30897;BME280;17597;52.246;21.054;2022-08-01T07:14:19;100290.50;;;18.06;73.42
30897;BME280;17597;52.246;21.054;2022-08-01T07:16:44;100290.84;;;18.13;73.97
30897;BME280;17597;52.246;21.054;2022-08-01T07:19:10;100291.03;;;18.25;72.06
30897;BME280;17597;52.246;21.054;2022-08-01T07:21:35;100287.69;;;18.28;70.48
30897;BME280;17597;52.246;21.054;2022-08-01T07:24:01;100288.34;;;18.42;69.77
30897;BME280;17597;52.246;21.054;2022-08-01T07:26:27;100290.25;;;18.59;69.12
30897;BME280;17597;52.246;21.054;2022-08-01T07:28:53;100290.13;;;18.73;69.02
30897;BME280;17597;52.246;21.054;2022-08-01T07:31:18;100288.22;;;18.82;69.98
30897;BME280;17597;52.246;21.054;2022-08-01T07:33:44;100285.88;;;19.83;67.56
30897;BME280;17597;52.246;21.054;2022-08-01T07:36:09;100283.19;;;22.95;56.70
30897;BME280;17597;52.246;21.054;2022-08-01T07:38:35;100276.66;;;26.81;48.26
30897;BME280;17597;52.246;21.054;2022-08-01T07:41:00;100278.41;;;30.64;38.55
30897;BME280;17597;52.246;21.054;2022-08-01T07:43:25;100268.59;;;33.30;32.09
30897;BME280;17597;52.246;21.054;2022-08-01T07:45:50;100275.72;;;35.46;27.84
30897;BME280;17597;52.246;21.054;2022-08-01T07:48:16;100270.53;;;37.75;23.94
30897;BME280;17597;52.246;21.054;2022-08-01T07:50:41;100283.13;;;38.76;23.45
30897;BME280;17597;52.246;21.054;2022-08-01T07:53:07;100275.94;;;40.02;21.65
30897;BME280;17597;52.246;21.054;2022-08-01T07:55:32;100272.00;;;40.87;20.41
30897;BME280;17597;52.246;21.054;2022-08-01T07:57:57;100269.84;;;41.78;19.63
30897;BME280;17597;52.246;21.054;2022-08-01T08:00:23;100255.38;;;42.68;17.72
30897;BME280;17597;52.246;21.054;2022-08-01T08:02:48;100262.09;;;42.56;18.38
30897;BME280;17597;52.246;21.054;2022-08-01T08:05:13;100263.41;;;43.10;17.21
30897;BME280;17597;52.246;21.054;2022-08-01T08:07:39;100270.78;;;43.28;17.10
30897;BME280;17597;52.246;21.054;2022-08-01T08:10:05;100261.78;;;43.65;15.91
30897;BME280;17597;52.246;21.054;2022-08-01T08:12:31;100265.94;;;43.49;17.06
30897;BME280;17597;52.246;21.054;2022-08-01T08:14:57;100261.72;;;43.79;16.20
30897;BME280;17597;52.246;21.054;2022-08-01T08:17:25;100264.38;;;43.68;16.25
30897;BME280;17597;52.246;21.054;2022-08-01T08:19:51;100264.25;;;43.77;16.20
30897;BME280;17597;52.246;21.054;2022-08-01T08:22:16;100271.41;;;44.30;15.65
30897;BME280;17597;52.246;21.054;2022-08-01T08:24:41;100262.53;;;44.37;15.50
30897;BME280;17597;52.246;21.054;2022-08-01T08:27:07;100267.78;;;43.98;16.04
30897;BME280;17597;52.246;21.054;2022-08-01T08:29:32;100265.44;;;44.49;15.06
30897;BME280;17597;52.246;21.054;2022-08-01T08:31:59;100257.63;;;45.07;14.60
30897;BME280;17597;52.246;21.054;2022-08-01T08:34:26;100261.28;;;44.12;15.21
30897;BME280;17597;52.246;21.054;2022-08-01T08:36:52;100268.09;;;44.32;15.99
30897;BME280;17597;52.246;21.054;2022-08-01T08:39:20;100266.19;;;44.49;14.79
30897;BME280;17597;52.246;21.054;2022-08-01T08:41:46;100262.28;;;44.67;14.77
30897;BME280;17597;52.246;21.054;2022-08-01T08:44:11;100270.13;;;44.57;15.07
30897;BME280;17597;52.246;21.054;2022-08-01T08:46:41;100275.84;;;44.68;15.23
30897;BME280;17597;52.246;21.054;2022-08-01T08:49:08;100272.50;;;44.70;15.14
30897;BME280;17597;52.246;21.054;2022-08-01T08:51:38;100272.84;;;44.78;15.29
30897;BME280;17597;52.246;21.054;2022-08-01T08:54:06;100275.06;;;43.64;15.29
30897;BME280;17597;52.246;21.054;2022-08-01T08:56:34;100274.00;;;43.00;16.08
30897;BME280;17597;52.246;21.054;2022-08-01T08:59:00;100275.38;;;41.48;16.60
30897;BME280;17597;52.246;21.054;2022-08-01T09:01:26;100273.44;;;41.78;16.90
30897;BME280;17597;52.246;21.054;2022-08-01T09:03:51;100275.13;;;42.59;16.47
30897;BME280;17597;52.246;21.054;2022-08-01T09:06:18;100276.03;;;42.35;16.31
30897;BME280;17597;52.246;21.054;2022-08-01T09:08:43;100273.53;;;42.87;15.96
30897;BME280;17597;52.246;21.054;2022-08-01T09:11:08;100275.22;;;42.50;16.25
30897;BME280;17597;52.246;21.054;2022-08-01T09:13:34;100282.69;;;43.02;15.82
30897;BME280;17597;52.246;21.054;2022-08-01T09:15:59;100277.94;;;43.09;15.46
30897;BME280;17597;52.246;21.054;2022-08-01T09:18:39;100280.84;;;42.20;16.72
30897;BME280;17597;52.246;21.054;2022-08-01T09:23:51;100274.22;;;39.58;18.99
30897;BME280;17597;52.246;21.054;2022-08-01T09:26:28;100284.44;;;40.86;17.52
30897;BME280;17597;52.246;21.054;2022-08-01T09:28:54;100287.38;;;41.64;16.60
30897;BME280;17597;52.246;21.054;2022-08-01T09:31:20;100285.53;;;41.84;16.08
30897;BME280;17597;52.246;21.054;2022-08-01T09:33:49;100279.78;;;42.17;15.80
30897;BME280;17597;52.246;21.054;2022-08-01T09:36:16;100287.91;;;42.60;15.74
30897;BME280;17597;52.246;21.054;2022-08-01T09:38:42;100291.28;;;41.42;17.16
30897;BME280;17597;52.246;21.054;2022-08-01T09:41:07;100288.47;;;41.42;17.34
30897;BME280;17597;52.246;21.054;2022-08-01T09:43:33;100293.50;;;42.01;16.71
30897;BME280;17597;52.246;21.054;2022-08-01T09:45:59;100275.59;;;41.98;17.03
30897;BME280;17597;52.246;21.054;2022-08-01T09:48:26;100269.22;;;41.98;17.27
30897;BME280;17597;52.246;21.054;2022-08-01T09:50:53;100271.97;;;41.20;17.59
30897;BME280;17597;52.246;21.054;2022-08-01T09:53:19;100275.63;;;40.69;18.45
30897;BME280;17597;52.246;21.054;2022-08-01T09:55:44;100281.03;;;41.39;17.26
30897;BME280;17597;52.246;21.054;2022-08-01T09:58:10;100277.19;;;41.03;17.41
30897;BME280;17597;52.246;21.054;2022-08-01T10:00:38;100273.78;;;40.66;18.13
30897;BME280;17597;52.246;21.054;2022-08-01T10:03:24;100272.34;;;39.83;19.09
30897;BME280;17597;52.246;21.054;2022-08-01T10:05:50;100267.97;;;39.45;18.57
30897;BME280;17597;52.246;21.054;2022-08-01T10:08:16;100264.56;;;37.73;20.53
30897;BME280;17597;52.246;21.054;2022-08-01T10:11:10;100268.75;;;36.96;21.23
30897;BME280;17597;52.246;21.054;2022-08-01T10:13:35;100256.81;;;36.15;22.66
30897;BME280;17597;52.246;21.054;2022-08-01T10:16:02;100255.94;;;35.28;23.07
30897;BME280;17597;52.246;21.054;2022-08-01T10:18:31;100265.81;;;34.01;24.94
30897;BME280;17597;52.246;21.054;2022-08-01T10:20:57;100257.56;;;32.76;27.37
30897;BME280;17597;52.246;21.054;2022-08-01T10:23:27;100259.94;;;31.68;28.88
30897;BME280;17597;52.246;21.054;2022-08-01T10:25:53;100261.13;;;30.53;31.01
30897;BME280;17597;52.246;21.054;2022-08-01T10:28:21;100251.94;;;29.58;33.43
30897;BME280;17597;52.246;21.054;2022-08-01T10:30:48;100245.66;;;28.17;36.25
30897;BME280;17597;52.246;21.054;2022-08-01T10:33:14;100247.03;;;27.31;38.29
30897;BME280;17597;52.246;21.054;2022-08-01T10:35:40;100249.28;;;27.22;37.13
30897;BME280;17597;52.246;21.054;2022-08-01T10:38:06;100258.00;;;27.31;37.52
30897;BME280;17597;52.246;21.054;2022-08-01T10:40:32;100248.59;;;27.28;36.71
30897;BME280;17597;52.246;21.054;2022-08-01T10:42:58;100258.22;;;27.12;37.59
30897;BME280;17597;52.246;21.054;2022-08-01T10:45:24;100255.31;;;27.01;37.60
30897;BME280;17597;52.246;21.054;2022-08-01T10:48:04;100252.88;;;26.89;37.68
30897;BME280;17597;52.246;21.054;2022-08-01T10:50:35;100247.81;;;26.91;36.78
30897;BME280;17597;52.246;21.054;2022-08-01T10:53:19;100242.69;;;26.89;37.79
30897;BME280;17597;52.246;21.054;2022-08-01T10:58:22;100248.97;;;26.52;39.51
30897;BME280;17597;52.246;21.054;2022-08-01T11:03:43;100251.53;;;26.38;39.55
30897;BME280;17597;52.246;21.054;2022-08-01T11:06:20;100248.69;;;26.05;39.66
30897;BME280;17597;52.246;21.054;2022-08-01T11:08:53;100243.94;;;25.98;40.90
30897;BME280;17597;52.246;21.054;2022-08-01T11:11:21;100238.41;;;26.24;40.12
30897;BME280;17597;52.246;21.054;2022-08-01T11:14:07;100239.31;;;26.32;41.09
30897;BME280;17597;52.246;21.054;2022-08-01T11:16:35;100244.56;;;26.44;39.35
30897;BME280;17597;52.246;21.054;2022-08-01T11:19:04;100238.25;;;26.40;38.56
30897;BME280;17597;52.246;21.054;2022-08-01T11:27:28;100250.66;;;26.04;39.49
30897;BME280;17597;52.246;21.054;2022-08-01T11:32:55;100242.00;;;25.99;39.46
30897;BME280;17597;52.246;21.054;2022-08-01T11:35:23;100244.34;;;26.00;40.00
30897;BME280;17597;52.246;21.054;2022-08-01T11:37:50;100241.59;;;26.27;38.66
30897;BME280;17597;52.246;21.054;2022-08-01T11:42:50;100247.03;;;26.57;38.58
30897;BME280;17597;52.246;21.054;2022-08-01T11:45:53;100246.00;;;26.68;39.25
30897;BME280;17597;52.246;21.054;2022-08-01T11:48:22;100242.78;;;26.59;39.15
30897;BME280;17597;52.246;21.054;2022-08-01T11:50:50;100241.66;;;26.64;38.72
30897;BME280;17597;52.246;21.054;2022-08-01T11:53:16;100249.13;;;26.67;38.36
30897;BME280;17597;52.246;21.054;2022-08-01T11:55:50;100240.34;;;26.50;38.37
30897;BME280;17597;52.246;21.054;2022-08-01T11:58:23;100243.44;;;26.49;39.56
30897;BME280;17597;52.246;21.054;2022-08-01T12:00:53;100238.28;;;26.44;39.30
30897;BME280;17597;52.246;21.054;2022-08-01T12:03:24;100243.81;;;26.47;40.54
30897;BME280;17597;52.246;21.054;2022-08-01T12:05:52;100243.06;;;26.50;40.13
30897;BME280;17597;52.246;21.054;2022-08-01T12:08:25;100226.56;;;26.43;39.80
30897;BME280;17597;52.246;21.054;2022-08-01T12:10:51;100234.47;;;26.48;40.08
30897;BME280;17597;52.246;21.054;2022-08-01T12:13:16;100240.75;;;26.52;39.32
30897;BME280;17597;52.246;21.054;2022-08-01T12:15:44;100243.72;;;26.40;39.40
30897;BME280;17597;52.246;21.054;2022-08-01T12:18:10;100234.38;;;26.41;39.70
30897;BME280;17597;52.246;21.054;2022-08-01T12:20:41;100237.50;;;26.13;40.19
30897;BME280;17597;52.246;21.054;2022-08-01T12:23:13;100242.97;;;26.43;39.92
30897;BME280;17597;52.246;21.054;2022-08-01T12:25:39;100239.91;;;26.82;38.00
30897;BME280;17597;52.246;21.054;2022-08-01T12:28:07;100241.53;;;26.90;38.83
30897;BME280;17597;52.246;21.054;2022-08-01T12:30:34;100241.06;;;27.22;38.03
30897;BME280;17597;52.246;21.054;2022-08-01T12:33:01;100238.16;;;27.48;37.39
30897;BME280;17597;52.246;21.054;2022-08-01T12:35:29;100230.50;;;27.68;37.25
30897;BME280;17597;52.246;21.054;2022-08-01T12:40:26;100233.50;;;27.52;38.43
30897;BME280;17597;52.246;21.054;2022-08-01T12:42:57;100236.44;;;27.26;37.73
30897;BME280;17597;52.246;21.054;2022-08-01T12:45:41;100230.34;;;27.02;38.63
30897;BME280;17597;52.246;21.054;2022-08-01T12:48:14;100228.28;;;27.33;37.98
30897;BME280;17597;52.246;21.054;2022-08-01T12:50:49;100232.22;;;27.39;37.00
30897;BME280;17597;52.246;21.054;2022-08-01T12:53:17;100235.59;;;27.22;38.59
30897;BME280;17597;52.246;21.054;2022-08-01T12:58:14;100225.09;;;27.79;37.48
30897;BME280;17597;52.246;21.054;2022-08-01T13:00:42;100219.72;;;28.00;36.93
30897;BME280;17597;52.246;21.054;2022-08-01T13:03:15;100224.44;;;28.07;37.32
30897;BME280;17597;52.246;21.054;2022-08-01T13:08:14;100192.75;;;28.09;37.47
30897;BME280;17597;52.246;21.054;2022-08-01T13:10:40;100218.28;;;28.24;36.96
30897;BME280;17597;52.246;21.054;2022-08-01T13:13:06;100225.00;;;28.37;37.02
30897;BME280;17597;52.246;21.054;2022-08-01T13:15:34;100214.72;;;28.20;37.03
30897;BME280;17597;52.246;21.054;2022-08-01T13:18:25;100214.41;;;28.36;36.32
30897;BME280;17597;52.246;21.054;2022-08-01T13:21:13;100215.75;;;27.87;38.01
30897;BME280;17597;52.246;21.054;2022-08-01T13:23:42;100217.88;;;27.56;38.18
30897;BME280;17597;52.246;21.054;2022-08-01T13:26:08;100224.00;;;27.94;37.43